Élőkép

Információk

Albatrosz Repülő Egyesület
8000 Székesfehérvár,
Radványi utca 6.

Adószám:
19092908-2-07

Bankszámla szám:
Budapest Bank
10102952-01361819-00000001

Telefon: +36 30 9598-897

Telephey: Börgönd repülőtér

Börgöndi repülõtér

LHBP METAR/TAF

[source: ADDS]
METAR
TAF LHBP 061700Z 0618/0718 05006KT CAVOK TEMPO 0621/0707 36005KT TAF
TAF LHBP 061700Z 0618/0718 05006KT CAVOK TEMPO 0621/0707 36005KT =
SR / SS: 05:17 / 16:40 UTC (Börgönd 2015-03-06)
Hungarian Chinese (Simplified) Croatian Czech English Finnish French German Hebrew Italian Japanese Polish Portuguese Romanian Russian Serbian Slovak Slovenian Spanish

Belépés tagoknak